createdAt,value
2019-02-11T00:00:38.140Z,3.10
2019-02-11T00:03:09.026Z,2.58
2019-02-11T00:05:38.290Z,2.87
2019-02-11T00:08:07.570Z,1.80
2019-02-11T00:10:36.843Z,1.90
2019-02-11T00:13:10.592Z,2.72
2019-02-11T00:15:37.344Z,2.25
2019-02-11T00:18:06.629Z,2.02
2019-02-11T00:20:35.893Z,2.30
2019-02-11T00:23:05.421Z,2.25
2019-02-11T00:25:35.037Z,2.00
2019-02-11T00:28:04.638Z,2.87
2019-02-11T00:30:34.302Z,3.35
2019-02-11T00:33:03.774Z,3.08
2019-02-11T00:35:33.053Z,3.70
2019-02-11T00:38:02.554Z,3.90
2019-02-11T00:40:31.829Z,5.20
2019-02-11T00:43:01.107Z,4.12
2019-02-11T00:45:30.383Z,4.20
2019-02-11T00:47:59.973Z,4.03
2019-02-11T00:50:29.235Z,3.37
2019-02-11T00:52:58.771Z,3.37
2019-02-11T00:55:28.387Z,3.30
2019-02-11T00:57:57.996Z,3.30
2019-02-11T01:00:27.279Z,3.77
2019-02-11T01:02:56.549Z,3.33
2019-02-11T01:05:25.819Z,3.60
2019-02-11T01:07:55.098Z,3.95
2019-02-11T01:10:24.364Z,4.12
2019-02-11T01:12:53.644Z,5.05
2019-02-11T01:15:23.199Z,4.78
2019-02-11T01:17:52.815Z,5.35
2019-02-11T01:20:22.079Z,5.55
2019-02-11T01:22:51.605Z,5.40
2019-02-11T01:25:20.887Z,5.37
2019-02-11T01:27:50.162Z,4.70
2019-02-11T01:30:19.428Z,4.85
2019-02-11T01:32:48.702Z,4.65
2019-02-11T01:35:19.047Z,4.33
2019-02-11T01:37:48.314Z,3.87
2019-02-11T01:40:17.847Z,3.45
2019-02-11T01:42:47.136Z,4.60
2019-02-11T01:45:16.396Z,4.55
2019-02-11T01:47:45.670Z,4.60
2019-02-11T01:50:14.942Z,3.90
2019-02-11T01:52:44.229Z,5.37
2019-02-11T01:55:13.493Z,5.20
2019-02-11T01:57:42.765Z,5.65
2019-02-11T02:00:13.815Z,5.33
2019-02-11T02:02:43.107Z,6.12
2019-02-11T02:05:12.377Z,5.60
2019-02-11T02:07:41.671Z,5.95
2019-02-11T02:10:13.839Z,6.10
2019-02-11T02:12:43.126Z,5.33
2019-02-11T02:15:14.513Z,5.58
2019-02-11T02:17:43.785Z,4.87
2019-02-11T02:20:16.007Z,5.28
2019-02-11T02:22:45.289Z,5.20
2019-02-11T02:25:14.558Z,5.55
2019-02-11T02:27:44.073Z,4.95
2019-02-11T02:30:14.194Z,4.42
2019-02-11T02:32:43.529Z,4.97
2019-02-11T02:35:12.801Z,5.40
2019-02-11T02:37:42.073Z,6.28
2019-02-11T02:40:11.525Z,6.58
2019-02-11T02:42:41.122Z,6.25
2019-02-11T02:45:10.653Z,5.67
2019-02-11T02:47:40.234Z,6.67
2019-02-11T02:50:09.983Z,7.70
2019-02-11T02:52:42.232Z,7.53
2019-02-11T02:55:11.510Z,8.70
2019-02-11T02:57:40.794Z,8.25
2019-02-11T03:00:11.883Z,9.30
2019-02-11T03:02:41.153Z,9.10
2019-02-11T03:05:10.489Z,9.05
2019-02-11T03:07:39.784Z,10.25
2019-02-11T03:10:11.166Z,10.32
2019-02-11T03:12:40.722Z,9.78
2019-02-11T03:15:11.129Z,11.30
2019-02-11T03:17:40.403Z,12.70
2019-02-11T03:20:10.258Z,13.32
2019-02-11T03:22:39.548Z,12.85
2019-02-11T03:25:09.950Z,11.63
2019-02-11T03:27:39.239Z,11.83
2019-02-11T03:30:09.965Z,12.53
2019-02-11T03:32:39.292Z,10.60
2019-02-11T03:35:08.609Z,9.53
2019-02-11T03:37:37.882Z,11.08
2019-02-11T03:40:09.668Z,10.18
2019-02-11T03:42:38.951Z,8.13
2019-02-11T03:45:11.348Z,9.75
2019-02-11T03:47:40.635Z,7.37
2019-02-11T03:50:11.344Z,9.35
2019-02-11T03:52:40.612Z,7.97
2019-02-11T03:55:09.986Z,7.45
2019-02-11T03:57:39.261Z,6.00
2019-02-11T04:00:14.489Z,6.12
2019-02-11T04:02:44.032Z,7.40
2019-02-11T04:05:13.355Z,6.47
2019-02-11T04:07:42.940Z,8.15
2019-02-11T04:10:12.549Z,8.03
2019-02-11T04:12:42.166Z,9.25
2019-02-11T04:15:12.999Z,10.40
2019-02-11T04:17:42.602Z,7.95
2019-02-11T04:20:12.030Z,9.40
2019-02-11T04:22:41.610Z,9.83
2019-02-11T04:25:10.899Z,8.85
2019-02-11T04:27:40.544Z,12.73
2019-02-11T04:30:10.093Z,12.70
2019-02-11T04:32:39.373Z,14.13
2019-02-11T04:35:08.725Z,14.30
2019-02-11T04:37:37.993Z,16.12
2019-02-11T04:40:10.415Z,14.95
2019-02-11T04:42:40.035Z,17.30
2019-02-11T04:45:10.454Z,15.05
2019-02-11T04:47:39.724Z,15.38
2019-02-11T04:50:10.383Z,15.78
2019-02-11T04:52:39.982Z,16.95
2019-02-11T04:55:10.048Z,17.87
2019-02-11T04:57:39.620Z,16.30
2019-02-11T05:00:14.232Z,14.90
2019-02-11T05:02:43.512Z,17.05
2019-02-11T05:05:13.175Z,16.42
2019-02-11T05:07:42.450Z,17.05
2019-02-11T05:10:17.669Z,14.35
2019-02-11T05:12:46.944Z,14.70
2019-02-11T05:15:16.234Z,14.40
2019-02-11T05:17:45.792Z,14.93
2019-02-11T05:20:15.082Z,14.00
2019-02-11T05:22:44.703Z,15.40
2019-02-11T05:25:13.985Z,14.28
2019-02-11T05:27:43.262Z,14.38
2019-02-11T05:30:12.558Z,12.33
2019-02-11T05:32:42.538Z,11.93
2019-02-11T05:35:11.907Z,13.85
2019-02-11T05:37:44.063Z,11.85
2019-02-11T05:40:13.134Z,12.13
2019-02-11T05:42:42.391Z,12.40
2019-02-11T05:45:11.910Z,10.75
2019-02-11T05:47:41.497Z,12.37
2019-02-11T05:50:12.120Z,11.30
2019-02-11T05:52:41.389Z,11.25
2019-02-11T05:55:10.867Z,11.28
2019-02-11T05:57:40.441Z,10.72
2019-02-11T06:00:12.650Z,12.93
2019-02-11T06:02:42.214Z,10.93
2019-02-11T06:05:11.822Z,11.90
2019-02-11T06:07:41.093Z,13.03
2019-02-11T06:10:11.022Z,11.68
2019-02-11T06:12:40.302Z,14.78
2019-02-11T06:15:09.658Z,12.20
2019-02-11T06:17:38.947Z,12.20
2019-02-11T06:20:10.080Z,13.03
2019-02-11T06:22:39.609Z,13.65
2019-02-11T06:25:09.218Z,10.40
2019-02-11T06:27:38.496Z,10.72
2019-02-11T06:30:11.122Z,10.38
2019-02-11T06:32:40.394Z,9.73
2019-02-11T06:35:10.140Z,11.43
2019-02-11T06:37:39.421Z,12.05
2019-02-11T06:40:10.438Z,9.65
2019-02-11T06:42:39.714Z,12.55
2019-02-11T06:45:13.369Z,11.33
2019-02-11T06:47:43.161Z,14.65
2019-02-11T06:50:14.703Z,11.40
2019-02-11T06:52:44.955Z,12.75
2019-02-11T06:55:14.233Z,13.15
2019-02-11T06:57:43.508Z,13.40
2019-02-11T07:00:15.108Z,11.60
2019-02-11T07:02:44.384Z,11.70
2019-02-11T07:05:13.842Z,13.13
2019-02-11T07:07:43.398Z,12.55
2019-02-11T07:10:12.699Z,9.80
2019-02-11T07:12:42.039Z,11.50
2019-02-11T07:15:21.249Z,11.10
2019-02-11T07:17:44.411Z,10.72
2019-02-11T07:20:13.681Z,9.75
2019-02-11T07:22:42.952Z,9.23
2019-02-11T07:25:12.482Z,10.10
2019-02-11T07:27:43.122Z,9.68
2019-02-11T07:30:13.964Z,8.88
2019-02-11T07:32:44.213Z,10.70
2019-02-11T07:35:13.795Z,10.38
2019-02-11T07:37:43.393Z,11.38
2019-02-11T07:40:13.747Z,13.85
2019-02-11T07:42:44.666Z,11.22
2019-02-11T07:45:18.746Z,12.75
2019-02-11T07:47:48.277Z,11.90
2019-02-11T07:50:17.564Z,11.65
2019-02-11T07:52:46.851Z,12.95
2019-02-11T07:55:16.131Z,13.83
2019-02-11T07:57:45.423Z,11.60
2019-02-11T08:00:15.086Z,13.15
2019-02-11T08:02:44.368Z,13.15
2019-02-11T08:05:13.912Z,12.13
2019-02-11T08:07:43.180Z,13.50
2019-02-11T08:10:12.457Z,11.63
2019-02-11T08:12:41.742Z,14.05
2019-02-11T08:15:11.508Z,13.43
2019-02-11T08:17:41.118Z,14.87
2019-02-11T08:20:10.779Z,14.07
2019-02-11T08:22:40.071Z,14.47
2019-02-11T08:25:09.417Z,14.65
2019-02-11T08:27:39.034Z,14.15
2019-02-11T08:30:10.460Z,15.38
2019-02-11T08:32:39.753Z,14.60
2019-02-11T08:35:09.267Z,17.00
2019-02-11T08:37:38.801Z,17.07
2019-02-11T08:40:09.859Z,16.23
2019-02-11T08:42:39.132Z,17.80
2019-02-11T08:45:10.162Z,18.55
2019-02-11T08:47:39.799Z,18.55
2019-02-11T08:50:09.708Z,15.48
2019-02-11T08:52:39.069Z,16.77
2019-02-11T08:55:08.790Z,13.45
2019-02-11T08:57:38.074Z,16.32
2019-02-11T09:00:10.113Z,17.80
2019-02-11T09:02:40.361Z,16.73
2019-02-11T09:05:09.634Z,20.15
2019-02-11T09:07:38.915Z,18.32
2019-02-11T09:10:10.830Z,19.45
2019-02-11T09:12:41.076Z,17.75
2019-02-11T09:15:12.358Z,17.95
2019-02-11T09:17:41.944Z,16.27
2019-02-11T09:20:11.893Z,20.40
2019-02-11T09:22:41.182Z,12.85
2019-02-11T09:25:11.591Z,16.90
2019-02-11T09:27:40.874Z,16.10
2019-02-11T09:30:17.368Z,17.05
2019-02-11T09:32:46.657Z,15.78
2019-02-11T09:35:16.166Z,14.90
2019-02-11T09:37:45.779Z,15.00
2019-02-11T09:40:16.925Z,15.28
2019-02-11T09:42:46.210Z,14.23
2019-02-11T09:45:21.495Z,14.90
2019-02-11T09:47:51.174Z,15.08
2019-02-11T09:50:26.604Z,14.25
2019-02-11T09:52:55.896Z,14.38
2019-02-11T09:55:30.503Z,13.22
2019-02-11T09:57:59.799Z,12.85
2019-02-11T10:00:29.071Z,12.82
2019-02-11T10:02:58.660Z,14.18
2019-02-11T10:05:28.262Z,13.50
2019-02-11T10:07:57.564Z,13.13
2019-02-11T10:10:26.840Z,13.53
2019-02-11T10:12:56.373Z,13.10
2019-02-11T10:15:25.642Z,12.63
2019-02-11T10:17:55.038Z,13.48
2019-02-11T10:20:24.683Z,12.95
2019-02-11T10:22:54.284Z,14.25
2019-02-11T10:25:26.379Z,12.88
2019-02-11T10:27:58.410Z,11.97
2019-02-11T10:30:27.681Z,13.70
2019-02-11T10:32:56.964Z,12.15
2019-02-11T10:35:26.534Z,12.58
2019-02-11T10:37:55.890Z,12.00
2019-02-11T10:40:25.169Z,12.10
2019-02-11T10:42:54.470Z,11.00
2019-02-11T10:45:23.905Z,10.80
2019-02-11T10:47:53.185Z,9.93
2019-02-11T10:50:22.466Z,10.10
2019-02-11T10:52:51.759Z,11.57
2019-02-11T10:55:21.649Z,10.32
2019-02-11T10:57:50.943Z,10.05
2019-02-11T11:00:24.345Z,8.70
2019-02-11T11:02:53.949Z,9.58
2019-02-11T11:05:23.230Z,8.73
2019-02-11T11:07:52.523Z,10.20
2019-02-11T11:10:30.554Z,9.15
2019-02-11T11:12:59.829Z,9.23
2019-02-11T11:15:29.468Z,9.00
2019-02-11T11:17:59.082Z,4.58
2019-02-11T11:20:28.658Z,8.23
2019-02-11T11:22:58.293Z,9.35
2019-02-11T11:25:27.908Z,9.50
2019-02-11T11:27:57.180Z,9.30
2019-02-11T11:30:26.820Z,9.23
2019-02-11T11:32:56.101Z,9.05
2019-02-11T11:35:25.375Z,8.23
2019-02-11T11:37:55.013Z,7.75
2019-02-11T11:40:24.468Z,8.25
2019-02-11T11:42:54.032Z,9.45
2019-02-11T11:45:23.306Z,8.38
2019-02-11T11:47:52.837Z,8.80
2019-02-11T11:50:22.126Z,8.35
2019-02-11T11:52:51.411Z,9.30
2019-02-11T11:55:22.407Z,11.05
2019-02-11T11:57:51.685Z,10.90
2019-02-11T12:00:28.775Z,9.53
2019-02-11T12:03:02.712Z,8.15
2019-02-11T12:05:29.024Z,11.10
2019-02-11T12:07:58.307Z,9.85
2019-02-11T12:10:28.682Z,8.80
2019-02-11T12:12:57.958Z,8.93
2019-02-11T12:15:27.608Z,8.03
2019-02-11T12:17:56.898Z,8.48
2019-02-11T12:20:26.154Z,9.30
2019-02-11T12:22:55.442Z,8.28
2019-02-11T12:25:24.808Z,8.35
2019-02-11T12:27:54.057Z,9.40
2019-02-11T12:30:27.735Z,10.63
2019-02-11T12:32:57.018Z,10.20
2019-02-11T12:35:26.563Z,10.15
2019-02-11T12:37:56.912Z,10.68
2019-02-11T12:40:26.193Z,9.83
2019-02-11T12:42:55.660Z,10.93
2019-02-11T12:45:25.360Z,10.63
2019-02-11T12:47:54.666Z,10.08
2019-02-11T12:50:23.948Z,7.08
2019-02-11T12:52:53.513Z,8.13
2019-02-11T12:55:22.789Z,10.43
2019-02-11T12:57:52.336Z,11.15
2019-02-11T13:00:23.139Z,9.03
2019-02-11T13:02:52.586Z,9.23
2019-02-11T13:05:32.184Z,8.83
2019-02-11T13:07:52.908Z,6.28
2019-02-11T13:10:22.234Z,4.90
2019-02-11T13:12:51.554Z,4.78
2019-02-11T13:15:53.151Z,4.92
2019-02-11T13:17:52.248Z,3.60
2019-02-11T13:20:21.618Z,5.10
2019-02-11T13:22:50.941Z,3.30
2019-02-11T13:25:20.228Z,3.62
2019-02-11T13:27:49.500Z,3.87
2019-02-11T13:30:20.510Z,4.47
2019-02-11T13:32:50.018Z,4.30
2019-02-11T13:35:19.601Z,4.22
2019-02-11T13:37:48.882Z,4.58
2019-02-11T13:40:18.219Z,5.90
2019-02-11T13:42:47.833Z,4.75
2019-02-11T13:45:21.518Z,4.92
2019-02-11T13:47:56.186Z,4.30
2019-02-11T13:50:26.640Z,5.03
2019-02-11T13:52:56.732Z,5.87
2019-02-11T13:55:30.154Z,6.78
2019-02-11T13:57:57.867Z,6.85
2019-02-11T14:00:36.703Z,6.80
2019-02-11T14:03:07.162Z,7.97
2019-02-11T14:05:36.431Z,8.43
2019-02-11T14:08:06.479Z,7.80
2019-02-11T14:10:36.292Z,8.00
2019-02-11T14:13:06.174Z,7.20
2019-02-11T14:15:35.620Z,3.87
2019-02-11T14:18:14.014Z,3.00
2019-02-11T14:20:41.223Z,2.80
2019-02-11T14:23:10.566Z,3.12
2019-02-11T14:25:44.977Z,3.47
2019-02-11T14:28:10.881Z,2.90
2019-02-11T14:30:40.304Z,3.92
2019-02-11T14:33:10.400Z,3.67
2019-02-11T14:35:39.755Z,4.00
2019-02-11T14:38:09.129Z,3.95
2019-02-11T14:40:38.898Z,4.05
2019-02-11T14:43:08.347Z,4.35
2019-02-11T14:45:37.685Z,4.45
2019-02-11T14:48:07.125Z,4.28
2019-02-11T14:50:36.587Z,5.58
2019-02-11T14:53:06.323Z,6.10
2019-02-11T14:55:35.701Z,5.45
2019-02-11T14:58:05.034Z,6.22
2019-02-11T15:00:34.305Z,5.25
2019-02-11T15:03:03.574Z,5.28
2019-02-11T15:05:32.863Z,6.70
2019-02-11T15:08:02.165Z,7.20
2019-02-11T15:10:31.434Z,6.75
2019-02-11T15:13:00.705Z,6.42
2019-02-11T15:15:30.043Z,6.72
2019-02-11T15:17:59.314Z,7.30
2019-02-11T15:20:28.599Z,7.22
2019-02-11T15:22:57.860Z,7.40
2019-02-11T15:25:27.191Z,7.65
2019-02-11T15:27:57.372Z,8.63
2019-02-11T15:30:26.660Z,8.63
2019-02-11T15:32:55.930Z,7.95
2019-02-11T15:35:25.235Z,8.63
2019-02-11T15:37:54.865Z,13.88
2019-02-11T15:40:24.136Z,6.37
2019-02-11T15:42:53.428Z,7.22
2019-02-11T15:45:22.697Z,5.30
2019-02-11T15:47:52.281Z,5.42
2019-02-11T15:50:21.555Z,4.67
2019-02-11T15:52:50.829Z,3.98
2019-02-11T15:55:23.162Z,4.00
2019-02-11T15:57:52.752Z,4.72
2019-02-11T16:00:23.307Z,4.05
2019-02-11T16:02:52.891Z,4.55
2019-02-11T16:05:22.168Z,3.72
2019-02-11T16:07:51.702Z,4.67
2019-02-11T16:10:28.373Z,3.50
2019-02-11T16:12:57.980Z,3.65
2019-02-11T16:15:27.388Z,3.47
2019-02-11T16:17:56.991Z,2.87
2019-02-11T16:20:26.266Z,4.80
2019-02-11T16:22:55.546Z,3.27
2019-02-11T16:25:24.835Z,3.47
2019-02-11T16:27:54.405Z,3.70
2019-02-11T16:30:23.668Z,3.75
2019-02-11T16:32:53.212Z,3.80
2019-02-11T16:35:22.867Z,5.00
2019-02-11T16:37:52.153Z,4.08
2019-02-11T16:40:27.230Z,4.33
2019-02-11T16:42:56.515Z,4.30
2019-02-11T16:45:25.785Z,3.85
2019-02-11T16:47:55.075Z,4.20
2019-02-11T16:50:24.358Z,5.65
2019-02-11T16:52:53.657Z,4.08
2019-02-11T16:55:23.257Z,5.50
2019-02-11T16:57:52.880Z,5.83
2019-02-11T17:00:22.151Z,5.25
2019-02-11T17:02:51.686Z,4.47
2019-02-11T17:05:21.311Z,4.22
2019-02-11T17:07:50.890Z,5.20
2019-02-11T17:10:20.162Z,3.98
2019-02-11T17:12:49.508Z,3.70
2019-02-11T17:15:20.164Z,4.25
2019-02-11T17:17:49.734Z,4.20
2019-02-11T17:20:19.178Z,4.05
2019-02-11T17:22:48.677Z,3.40
2019-02-11T17:25:18.259Z,4.37
2019-02-11T17:27:47.558Z,3.33
2019-02-11T17:30:26.027Z,4.65
2019-02-11T17:32:55.310Z,3.60
2019-02-11T17:35:24.591Z,6.37
2019-02-11T17:37:53.875Z,3.20
2019-02-11T17:40:23.483Z,3.72
2019-02-11T17:42:52.768Z,3.40
2019-02-11T17:45:30.369Z,3.60
2019-02-11T17:47:59.991Z,3.17
2019-02-11T17:50:29.270Z,2.83
2019-02-11T17:53:01.629Z,2.90
2019-02-11T17:55:30.894Z,3.37
2019-02-11T17:58:00.174Z,3.60
2019-02-11T18:00:42.839Z,3.40
2019-02-11T18:03:12.131Z,3.55
2019-02-11T18:05:41.403Z,3.40
2019-02-11T18:08:10.672Z,2.77
2019-02-11T18:10:39.950Z,2.77
2019-02-11T18:13:09.234Z,2.42
2019-02-11T18:15:38.777Z,2.58
2019-02-11T18:18:08.383Z,3.52
2019-02-11T18:20:37.995Z,4.50
2019-02-11T18:23:07.299Z,3.25
2019-02-11T18:25:36.582Z,3.22
2019-02-11T18:28:06.207Z,5.35
2019-02-11T18:30:35.537Z,5.40
2019-02-11T18:33:04.904Z,4.05
2019-02-11T18:35:34.520Z,3.37
2019-02-11T18:38:03.797Z,2.80
2019-02-11T18:40:33.332Z,3.85
2019-02-11T18:43:02.601Z,6.10
2019-02-11T18:45:33.268Z,2.90
2019-02-11T18:48:02.864Z,3.55
2019-02-11T18:50:32.140Z,3.33
2019-02-11T18:53:01.668Z,3.30
2019-02-11T18:55:31.627Z,2.80
2019-02-11T18:58:00.902Z,3.30
2019-02-11T19:00:30.495Z,4.00
2019-02-11T19:03:00.099Z,3.30
2019-02-11T19:05:29.719Z,3.65
2019-02-11T19:07:58.989Z,3.10
2019-02-11T19:10:28.254Z,3.37
2019-02-11T19:12:57.814Z,3.22
2019-02-11T19:15:27.082Z,3.52
2019-02-11T19:17:56.371Z,3.20
2019-02-11T19:20:25.918Z,2.75
2019-02-11T19:22:55.251Z,2.85
2019-02-11T19:25:24.520Z,2.77
2019-02-11T19:27:53.811Z,3.25
2019-02-11T19:30:27.024Z,2.42
2019-02-11T19:32:56.628Z,4.00
2019-02-11T19:35:25.894Z,4.50
2019-02-11T19:37:56.161Z,5.33
2019-02-11T19:40:25.422Z,5.60
2019-02-11T19:42:54.774Z,4.00
2019-02-11T19:45:24.767Z,5.42
2019-02-11T19:47:54.048Z,3.85
2019-02-11T19:50:23.634Z,3.47
2019-02-11T19:52:52.901Z,4.10
2019-02-11T19:55:22.473Z,3.55
2019-02-11T19:57:51.991Z,4.15
2019-02-11T20:00:22.448Z,5.35
2019-02-11T20:02:52.030Z,5.22
2019-02-11T20:05:22.383Z,5.20
2019-02-11T20:07:51.654Z,6.00
2019-02-11T20:10:23.313Z,5.65
2019-02-11T20:12:53.052Z,6.37
2019-02-11T20:15:32.337Z,6.90
2019-02-11T20:18:01.609Z,6.60
2019-02-11T20:20:30.885Z,6.22
2019-02-11T20:23:00.217Z,7.80
2019-02-11T20:25:29.519Z,6.65
2019-02-11T20:27:58.789Z,6.87
2019-02-11T20:30:29.615Z,7.67
2019-02-11T20:32:58.886Z,8.30
2019-02-11T20:35:28.186Z,6.47
2019-02-11T20:37:58.935Z,8.08
2019-02-11T20:40:30.013Z,7.05
2019-02-11T20:42:59.587Z,6.78
2019-02-11T20:45:29.598Z,7.90
2019-02-11T20:47:59.144Z,6.75
2019-02-11T20:50:28.436Z,7.05
2019-02-11T20:52:58.924Z,6.80
2019-02-11T20:55:28.220Z,6.42
2019-02-11T20:57:59.431Z,6.53
2019-02-11T21:00:28.995Z,7.15
2019-02-11T21:02:58.265Z,7.53
2019-02-11T21:05:27.543Z,6.53
2019-02-11T21:07:57.089Z,7.15
2019-02-11T21:10:26.997Z,6.20
2019-02-11T21:12:56.274Z,5.15
2019-02-11T21:15:25.816Z,5.97
2019-02-11T21:17:55.090Z,5.22
2019-02-11T21:20:33.069Z,6.22
2019-02-11T21:23:02.419Z,5.42
2019-02-11T21:25:32.034Z,5.60
2019-02-11T21:28:01.384Z,6.42
2019-02-11T21:30:30.936Z,5.45
2019-02-11T21:33:00.209Z,4.55
2019-02-11T21:35:29.739Z,6.70
2019-02-11T21:37:59.018Z,5.78
2019-02-11T21:40:28.289Z,7.20
2019-02-11T21:42:57.844Z,7.28
2019-02-11T21:45:27.137Z,7.40
2019-02-11T21:47:56.649Z,6.45
2019-02-11T21:50:27.008Z,7.60
2019-02-11T21:52:56.788Z,6.40
2019-02-11T21:55:26.453Z,5.97
2019-02-11T21:57:55.760Z,7.22
2019-02-11T22:00:25.039Z,7.10
2019-02-11T22:02:54.310Z,5.28
2019-02-11T22:05:23.590Z,5.85
2019-02-11T22:07:52.870Z,5.15
2019-02-11T22:10:23.319Z,5.08
2019-02-11T22:12:53.660Z,5.72
2019-02-11T22:15:22.981Z,6.30
2019-02-11T22:17:52.262Z,6.58
2019-02-11T22:20:22.291Z,5.67
2019-02-11T22:22:51.632Z,5.50
2019-02-11T22:25:20.909Z,7.70
2019-02-11T22:27:50.182Z,7.00
2019-02-11T22:30:24.932Z,7.47
2019-02-11T22:32:54.511Z,7.12
2019-02-11T22:35:23.869Z,6.03
2019-02-11T22:37:53.188Z,6.40
2019-02-11T22:40:22.449Z,7.90
2019-02-11T22:42:51.717Z,6.72
2019-02-11T22:45:23.991Z,6.20
2019-02-11T22:47:53.607Z,6.30
2019-02-11T22:50:22.879Z,5.97
2019-02-11T22:52:52.196Z,6.83
2019-02-11T22:55:21.495Z,7.00
2019-02-11T22:57:51.124Z,6.83
2019-02-11T23:00:28.345Z,7.17
2019-02-11T23:02:57.880Z,7.25
2019-02-11T23:05:27.164Z,7.12
2019-02-11T23:07:56.446Z,7.55
2019-02-11T23:10:26.015Z,6.15
2019-02-11T23:12:55.290Z,6.55
2019-02-11T23:15:24.815Z,7.30
2019-02-11T23:17:55.164Z,6.17
2019-02-11T23:20:24.442Z,8.18
2019-02-11T23:22:53.722Z,8.15
2019-02-11T23:25:23.341Z,6.83
2019-02-11T23:27:52.959Z,7.20
2019-02-11T23:30:22.239Z,6.60
2019-02-11T23:32:51.523Z,6.92
2019-02-11T23:35:20.796Z,6.35
2019-02-11T23:37:50.061Z,6.22
2019-02-11T23:40:19.349Z,5.75
2019-02-11T23:42:48.866Z,5.33
2019-02-11T23:45:18.141Z,7.12
2019-02-11T23:47:47.665Z,7.87
2019-02-11T23:50:16.951Z,6.95
2019-02-11T23:52:46.217Z,6.00
2019-02-11T23:55:15.495Z,6.72
2019-02-11T23:57:44.761Z,6.35
